Time;durP1;ratioP1;P1;durP2;ratioP2;P2;SDS_P1;SDS_P2;PMS_P1;PMS_P2;Temp;Humidity;BMP_temperature;BMP_pressure;BME280_temperature;BME280_humidity;BME280_pressure;Samples;Min_cycle;Max_cycle;Signal;HPM_P1;HPM_P2
2021/12/03 00:02:02;;;;;;;12.00;2.00;;;;;;;-0.93;67.46;99124.73;103221;1316;26908;-58
2021/12/03 00:04:30;;;;;;;14.80;1.80;;;;;;;-0.95;67.57;99125.10;103189;1309;25591;-58
2021/12/03 00:06:59;;;;;;;9.10;1.70;;;;;;;-0.97;67.63;99125.55;103144;1308;25668;-59
2021/12/03 00:09:32;;;;;;;16.20;1.80;;;;;;;-1.00;67.64;99135.79;103189;1309;22625;-58
2021/12/03 00:12:01;;;;;;;12.10;1.80;;;;;;;-1.02;67.75;99138.88;103182;1309;22639;-59
2021/12/03 00:14:29;;;;;;;13.70;2.20;;;;;;;-1.04;67.86;99146.30;103600;1308;24328;-58
2021/12/03 00:16:57;;;;;;;9.70;1.40;;;;;;;-1.05;67.87;99155.80;103719;1315;24473;-58
2021/12/03 00:19:27;;;;;;;16.60;2.20;;;;;;;-1.06;67.94;99160.45;103238;1313;22719;-59
2021/12/03 00:21:55;;;;;;;13.30;2.20;;;;;;;-1.07;68.05;99166.02;103315;1308;25224;-59
2021/12/03 00:24:24;;;;;;;14.70;2.20;;;;;;;-1.07;68.22;99170.48;103177;1308;23102;-59
2021/12/03 00:26:52;;;;;;;15.90;2.50;;;;;;;-1.08;68.49;99175.11;103190;1308;24497;-58
2021/12/03 00:29:20;;;;;;;15.60;2.20;;;;;;;-1.07;68.65;99178.39;103773;1297;22609;-55
2021/12/03 00:31:49;;;;;;;10.70;1.50;;;;;;;-1.07;68.62;99177.59;103670;1308;25252;-59
2021/12/03 00:34:18;;;;;;;11.50;1.60;;;;;;;-1.06;68.80;99182.10;103560;1308;25546;-56
2021/12/03 00:36:46;;;;;;;14.30;2.10;;;;;;;-1.04;68.88;99194.20;103559;1313;26802;-56
2021/12/03 00:39:15;;;;;;;19.30;2.50;;;;;;;-1.01;69.00;99204.46;103568;1314;24363;-55
2021/12/03 00:41:46;;;;;;;9.40;1.60;;;;;;;-0.99;69.04;99205.74;103558;1309;25528;-58
2021/12/03 00:44:15;;;;;;;11.90;1.40;;;;;;;-0.96;69.13;99210.22;103541;1309;22797;-58
2021/12/03 00:46:43;;;;;;;14.60;1.90;;;;;;;-0.93;69.08;99216.79;103572;1308;22636;-58
2021/12/03 00:49:13;;;;;;;10.00;1.40;;;;;;;-0.90;69.22;99213.10;103528;1309;25504;-58
2021/12/03 00:51:43;;;;;;;10.90;1.50;;;;;;;-0.88;69.17;99215.20;103489;1309;25589;-58
2021/12/03 00:54:13;;;;;;;10.80;2.20;;;;;;;-0.85;69.20;99215.19;103524;1312;26548;-59
2021/12/03 00:56:43;;;;;;;7.70;1.20;;;;;;;-0.83;69.34;99220.09;103673;1308;24264;-57
2021/12/03 00:59:12;;;;;;;11.60;2.10;;;;;;;-0.82;69.34;99222.57;103600;1309;22773;-58
2021/12/03 01:01:41;;;;;;;11.40;1.60;;;;;;;-0.82;69.36;99227.89;103630;1314;25706;-58
2021/12/03 01:04:10;;;;;;;15.30;1.70;;;;;;;-0.82;69.48;99231.89;103706;1308;22700;-57
2021/12/03 01:06:38;;;;;;;18.90;2.10;;;;;;;-0.84;69.53;99232.16;103565;1309;22577;-58
2021/12/03 01:09:06;;;;;;;19.00;3.40;;;;;;;-0.86;69.48;99238.16;103664;1309;22572;-60
2021/12/03 01:11:36;;;;;;;19.10;3.00;;;;;;;-0.88;69.73;99244.71;103449;1309;22666;-57
2021/12/03 01:14:04;;;;;;;12.80;1.80;;;;;;;-0.91;69.83;99245.24;103760;1308;25151;-60
2021/12/03 01:16:33;;;;;;;11.10;1.80;;;;;;;-0.92;69.87;99250.82;103532;1313;25689;-60
2021/12/03 01:19:03;;;;;;;9.20;1.40;;;;;;;-0.92;69.97;99251.84;103816;1308;24167;-58
2021/12/03 01:21:31;;;;;;;12.90;1.60;;;;;;;-0.91;70.07;99253.14;103550;1308;25470;-58
2021/12/03 01:23:59;;;;;;;9.70;1.70;;;;;;;-0.91;70.11;99258.61;103548;1309;22728;-56
2021/12/03 01:26:28;;;;;;;10.00;1.60;;;;;;;-0.89;70.20;99263.35;103565;1309;22610;-56
2021/12/03 01:28:57;;;;;;;9.90;1.40;;;;;;;-0.88;70.26;99266.23;103600;1315;22873;-59
2021/12/03 01:31:26;;;;;;;10.60;1.90;;;;;;;-0.88;70.27;99266.94;103470;1308;26089;-59
2021/12/03 01:33:55;;;;;;;10.40;1.40;;;;;;;-0.89;70.27;99266.16;103493;1308;22712;-57
2021/12/03 01:36:24;;;;;;;7.90;1.40;;;;;;;-0.90;70.34;99265.82;103588;1309;22652;-56
2021/12/03 01:38:53;;;;;;;9.70;1.60;;;;;;;-0.91;70.38;99273.51;103714;1309;25040;-57
2021/12/03 01:41:22;;;;;;;12.50;1.50;;;;;;;-0.94;70.48;99278.55;103522;1309;24267;-58
2021/12/03 01:43:51;;;;;;;7.80;1.30;;;;;;;-0.97;70.50;99282.78;103578;1310;25295;-57
2021/12/03 01:46:20;;;;;;;9.30;1.60;;;;;;;-1.01;70.39;99286.39;103632;1310;25268;-56
2021/12/03 01:48:49;;;;;;;16.00;1.70;;;;;;;-1.04;70.52;99293.45;103546;1309;27090;-57
2021/12/03 01:51:19;;;;;;;11.50;1.60;;;;;;;-1.08;70.57;99299.23;103501;1311;22712;-57
2021/12/03 01:53:47;;;;;;;13.20;1.80;;;;;;;-1.12;70.78;99301.96;103711;1311;25331;-57
2021/12/03 01:56:17;;;;;;;8.20;1.30;;;;;;;-1.17;70.82;99303.23;103535;1310;24635;-59
2021/12/03 01:58:47;;;;;;;8.90;1.20;;;;;;;-1.20;70.85;99304.02;103610;1315;22755;-60
2021/12/03 02:01:18;;;;;;;10.90;1.50;;;;;;;-1.23;70.83;99308.23;103617;1313;22666;-55
2021/12/03 02:03:49;;;;;;;9.50;1.10;;;;;;;-1.27;70.91;99305.98;103542;1312;22769;-57
2021/12/03 02:06:17;;;;;;;7.40;1.00;;;;;;;-1.31;70.99;99311.36;103569;1315;23370;-56
2021/12/03 02:08:46;;;;;;;8.30;1.20;;;;;;;-1.34;71.17;99315.97;103549;1310;22836;-61
2021/12/03 02:11:16;;;;;;;6.40;0.90;;;;;;;-1.38;71.51;99321.83;103709;1309;25562;-56
2021/12/03 02:13:46;;;;;;;7.60;1.10;;;;;;;-1.40;71.59;99322.34;103625;1310;22592;-55
2021/12/03 02:16:16;;;;;;;9.30;1.00;;;;;;;-1.42;71.46;99324.17;103597;1311;22701;-58
2021/12/03 02:18:44;;;;;;;9.00;1.20;;;;;;;-1.44;71.57;99332.20;103724;1309;22663;-56
2021/12/03 02:21:13;;;;;;;10.30;1.40;;;;;;;-1.48;71.70;99333.05;103518;1309;24199;-56
2021/12/03 02:23:43;;;;;;;6.00;1.20;;;;;;;-1.52;71.64;99333.89;103679;1310;22742;-57
2021/12/03 02:26:12;;;;;;;;;;;;;;;-1.56;71.87;99332.64;103708;1309;22564;-56
2021/12/03 02:28:44;;;;;;;13.90;1.90;;;;;;;-1.59;71.84;99344.05;104114;1315;22968;-57
2021/12/03 02:31:14;;;;;;;7.90;1.30;;;;;;;-1.63;72.08;99347.26;104298;1309;22918;-58
2021/12/03 02:33:42;;;;;;;8.20;1.10;;;;;;;-1.66;72.21;99347.08;103667;1311;22598;-60
2021/12/03 02:36:11;;;;;;;11.90;1.20;;;;;;;-1.69;72.25;99353.21;103674;1313;25692;-60
2021/12/03 02:38:40;;;;;;;12.50;1.40;;;;;;;-1.71;72.29;99350.60;103647;1308;24215;-57
2021/12/03 02:41:09;;;;;;;7.40;1.00;;;;;;;-1.74;72.39;99351.03;103581;1313;24315;-60
2021/12/03 02:43:37;;;;;;;8.00;1.30;;;;;;;-1.76;72.55;99350.36;103713;1315;24475;-58
2021/12/03 02:46:05;;;;;;;9.80;1.50;;;;;;;-1.78;72.66;99355.71;103528;1308;24816;-56
2021/12/03 02:48:36;;;;;;;11.70;1.20;;;;;;;-1.81;72.75;99358.05;103603;1310;24300;-55
2021/12/03 02:51:05;;;;;;;13.20;1.30;;;;;;;-1.83;72.91;99359.55;103611;1306;22770;-57
2021/12/03 02:53:34;;;;;;;10.30;1.10;;;;;;;-1.83;73.00;99360.89;103705;1314;26014;-57
2021/12/03 02:56:04;;;;;;;10.40;1.00;;;;;;;-1.84;73.07;99366.61;103646;1315;22771;-59
2021/12/03 02:58:34;;;;;;;10.90;1.20;;;;;;;-1.85;73.33;99364.59;103543;1308;25367;-58
2021/12/03 03:01:06;;;;;;;9.00;1.00;;;;;;;-1.86;73.32;99367.27;103208;1309;22692;-60
2021/12/03 03:03:34;;;;;;;6.00;1.00;;;;;;;-1.86;73.68;99366.66;103779;1313;25622;-57
2021/12/03 03:06:05;;;;;;;9.20;1.00;;;;;;;-1.86;73.76;99373.14;103586;1311;22736;-58
2021/12/03 03:08:34;;;;;;;10.00;1.10;;;;;;;-1.86;73.71;99376.88;103656;1310;25912;-58
2021/12/03 03:11:06;;;;;;;6.20;1.10;;;;;;;-1.86;73.82;99380.16;103651;1313;22811;-60
2021/12/03 03:13:36;;;;;;;7.60;0.80;;;;;;;-1.86;73.76;99380.55;103644;1315;22698;-58
2021/12/03 03:16:06;;;;;;;10.10;1.00;;;;;;;-1.87;74.01;99391.59;103592;1308;25364;-57
2021/12/03 03:18:35;;;;;;;8.50;0.90;;;;;;;-1.87;74.03;99389.17;103698;1311;25581;-56
2021/12/03 03:21:05;;;;;;;8.90;1.20;;;;;;;-1.86;74.05;99388.54;103698;1311;22734;-56
2021/12/03 03:23:35;;;;;;;9.00;1.40;;;;;;;-1.86;73.95;99391.58;103657;1311;22559;-57
2021/12/03 03:26:04;;;;;;;8.30;0.80;;;;;;;-1.85;74.19;99403.52;103526;1315;25360;-58
2021/12/03 03:28:33;;;;;;;6.40;0.90;;;;;;;-1.85;74.34;99405.63;103770;1315;22791;-56
2021/12/03 03:31:01;;;;;;;12.10;1.30;;;;;;;-1.85;74.51;99409.46;103578;1310;24259;-57
2021/12/03 03:33:30;;;;;;;11.60;2.10;;;;;;;-1.85;74.40;99409.92;103583;1311;23238;-54
2021/12/03 03:35:59;;;;;;;13.00;1.30;;;;;;;-1.85;74.58;99411.33;103819;1310;22647;-58
2021/12/03 03:38:27;;;;;;;6.60;1.20;;;;;;;-1.84;74.50;99411.86;103581;1313;22770;-58
2021/12/03 03:40:56;;;;;;;10.80;1.40;;;;;;;-1.84;74.46;99414.14;103556;1315;22838;-56
2021/12/03 03:43:25;;;;;;;9.40;1.50;;;;;;;-1.84;74.47;99410.38;103586;1309;24228;-60
2021/12/03 03:45:53;;;;;;;9.90;1.60;;;;;;;-1.84;74.66;99413.73;103621;1309;24123;-56
2021/12/03 03:48:23;;;;;;;9.10;1.80;;;;;;;-1.84;74.97;99415.14;103537;1313;22786;-60
2021/12/03 03:50:54;;;;;;;11.20;1.70;;;;;;;-1.84;74.98;99418.91;103536;1309;24111;-57
2021/12/03 03:53:23;;;;;;;13.50;1.80;;;;;;;-1.85;75.05;99421.10;103645;1313;22697;-57
2021/12/03 03:55:53;;;;;;;8.50;1.40;;;;;;;-1.86;75.19;99425.17;103618;1313;24269;-56
2021/12/03 03:58:21;;;;;;;9.00;1.40;;;;;;;-1.86;75.28;99426.29;103659;1308;22645;-61
2021/12/03 04:00:50;;;;;;;14.10;1.40;;;;;;;-1.88;75.42;99421.92;103539;1308;22789;-57
2021/12/03 04:03:18;;;;;;;11.80;1.50;;;;;;;-1.88;75.45;99420.44;103565;1315;22668;-57
2021/12/03 04:05:46;;;;;;;12.50;1.90;;;;;;;-1.88;75.38;99414.52;103557;1310;26173;-58
2021/12/03 04:08:15;;;;;;;11.10;1.80;;;;;;;-1.88;75.57;99410.13;103667;1313;22738;-57
2021/12/03 04:10:44;;;;;;;13.10;2.20;;;;;;;-1.89;75.72;99416.16;103555;1315;22997;-58
2021/12/03 04:13:12;;;;;;;13.80;2.50;;;;;;;-1.88;75.40;99411.06;103703;1309;24251;-57
2021/12/03 04:15:42;;;;;;;9.90;2.20;;;;;;;-1.89;75.56;99408.67;103636;1310;22733;-56
2021/12/03 04:18:10;;;;;;;10.80;1.80;;;;;;;-1.90;75.65;99416.27;103535;1308;22754;-58
2021/12/03 04:20:38;;;;;;;21.00;3.90;;;;;;;-1.91;75.73;99418.86;103555;1309;22815;-59
2021/12/03 04:23:07;;;;;;;13.50;2.70;;;;;;;-1.91;75.88;99422.52;103458;1313;22600;-57
2021/12/03 04:25:36;;;;;;;17.40;2.90;;;;;;;-1.91;75.80;99425.58;103480;1315;24823;-57
2021/12/03 04:28:05;;;;;;;12.40;3.00;;;;;;;-1.91;75.72;99430.36;103613;1308;22571;-55
2021/12/03 04:30:35;;;;;;;14.00;3.40;;;;;;;-1.93;75.82;99426.71;103594;1310;22812;-59
2021/12/03 04:33:04;;;;;;;13.20;2.80;;;;;;;-1.95;75.67;99426.58;103702;1312;24237;-55
2021/12/03 04:35:32;;;;;;;18.00;4.00;;;;;;;-1.96;75.65;99425.27;103388;1311;309010;-60
2021/12/03 04:38:01;;;;;;;11.30;3.00;;;;;;;-1.96;75.71;99428.40;103441;1312;24503;-60
2021/12/03 04:40:31;;;;;;;16.50;3.40;;;;;;;-1.98;75.82;99432.17;106877;1309;22375;-58
2021/12/03 04:42:59;;;;;;;16.00;3.60;;;;;;;-1.98;75.81;99438.98;106960;1306;22606;-56
2021/12/03 04:45:29;;;;;;;12.30;3.20;;;;;;;-1.98;76.01;99447.88;106948;1309;23108;-58
2021/12/03 04:47:59;;;;;;;15.90;4.20;;;;;;;-1.99;75.97;99453.29;106938;1312;22552;-56
2021/12/03 04:50:30;;;;;;;14.10;4.40;;;;;;;-1.99;75.94;99459.70;106751;1315;22623;-58
2021/12/03 04:52:59;;;;;;;18.70;4.10;;;;;;;-1.99;76.15;99462.73;106710;1315;22586;-59
2021/12/03 04:55:28;;;;;;;13.70;3.30;;;;;;;-1.98;76.22;99465.86;106860;1315;22325;-59
2021/12/03 04:57:56;;;;;;;17.00;4.60;;;;;;;-1.98;76.16;99465.39;106906;1315;22505;-59
2021/12/03 05:00:27;;;;;;;18.00;3.60;;;;;;;-1.97;76.25;99473.49;106909;1312;22318;-57
2021/12/03 05:02:56;;;;;;;18.60;4.30;;;;;;;-1.97;76.22;99473.73;106620;1315;22618;-60
2021/12/03 05:05:26;;;;;;;12.70;2.40;;;;;;;-1.95;76.25;99471.68;106933;1315;22450;-56
2021/12/03 05:07:59;;;;;;;8.90;1.50;;;;;;;-1.96;76.28;99473.95;106940;1313;22568;-56
2021/12/03 05:10:28;;;;;;;18.20;2.20;;;;;;;-1.97;76.23;99469.29;106968;1313;22626;-58
2021/12/03 05:12:59;;;;;;;10.70;1.70;;;;;;;-1.97;76.34;99478.98;106400;1315;22168;-59
2021/12/03 05:15:27;;;;;;;;;;;;;;;-1.97;76.39;99482.25;106977;1315;23015;-61
2021/12/03 05:17:55;;;;;;;15.20;2.00;;;;;;;-1.99;76.51;99483.54;106951;1315;22573;-60
2021/12/03 05:20:24;;;;;;;12.40;1.70;;;;;;;-1.99;76.48;99483.63;105104;1311;24242;-58
2021/12/03 05:22:53;;;;;;;12.30;1.50;;;;;;;-2.00;76.49;99478.08;106980;1315;22647;-57
2021/12/03 05:25:21;;;;;;;10.40;1.80;;;;;;;-2.00;76.59;99482.30;106765;1314;22593;-58
2021/12/03 05:27:51;;;;;;;10.00;1.90;;;;;;;-1.99;76.60;99487.85;106927;1315;22507;-57
2021/12/03 05:30:22;;;;;;;9.20;1.70;;;;;;;-1.99;76.54;99486.58;106927;1315;22549;-57
2021/12/03 05:32:51;;;;;;;13.60;1.80;;;;;;;-1.98;76.46;99487.42;106908;1314;22605;-57
2021/12/03 05:35:19;;;;;;;13.70;1.90;;;;;;;-1.98;76.54;99483.98;106952;1314;23995;-57
2021/12/03 05:37:48;;;;;;;17.20;2.00;;;;;;;-1.97;76.62;99488.05;106949;1313;24007;-59
2021/12/03 05:40:18;;;;;;;10.70;2.60;;;;;;;-1.97;76.56;99492.02;106035;1311;22752;-57
2021/12/03 05:42:48;;;;;;;12.10;2.20;;;;;;;-1.97;76.47;99496.25;103392;1311;22764;-57
2021/12/03 05:45:21;;;;;;;15.80;2.60;;;;;;;-1.97;76.43;99495.30;103381;1315;24774;-57
2021/12/03 05:47:50;;;;;;;11.70;1.90;;;;;;;-1.99;76.43;99499.71;103332;1315;25700;-58
2021/12/03 05:50:20;;;;;;;11.10;2.30;;;;;;;-2.01;76.52;99508.80;103288;1311;25596;-57
2021/12/03 05:52:50;;;;;;;17.30;2.60;;;;;;;-2.03;76.54;99514.68;105839;1312;24684;-59
2021/12/03 05:55:19;;;;;;;13.00;1.70;;;;;;;-2.04;76.58;99516.42;103252;1315;25548;-55
2021/12/03 05:57:48;;;;;;;13.80;1.90;;;;;;;-2.05;76.48;99521.06;103359;1315;27344;-55
2021/12/03 06:00:24;;;;;;;11.60;2.20;;;;;;;-2.07;76.62;99529.44;103584;1315;22806;-56
2021/12/03 06:02:53;;;;;;;12.00;2.40;;;;;;;-2.09;76.68;99531.80;103566;1315;25817;-63
2021/12/03 06:05:23;;;;;;;12.60;1.70;;;;;;;-2.11;76.73;99539.26;103510;1315;22788;-55
2021/12/03 06:07:51;;;;;;;14.00;1.90;;;;;;;-2.13;76.66;99547.08;103626;1315;22731;-54
2021/12/03 06:10:20;;;;;;;12.80;2.50;;;;;;;-2.15;76.63;99547.91;103480;1313;25554;-56
2021/12/03 06:12:49;;;;;;;15.00;2.70;;;;;;;-2.16;76.70;99551.20;103534;1313;24221;-57
2021/12/03 06:15:18;;;;;;;17.00;2.40;;;;;;;-2.18;76.81;99555.30;103344;1313;24266;-56
2021/12/03 06:17:47;;;;;;;11.80;1.60;;;;;;;-2.17;76.65;99560.52;103726;1311;25613;-54
2021/12/03 06:20:16;;;;;;;12.30;2.40;;;;;;;-2.17;76.66;99561.98;103416;1313;22798;-55
2021/12/03 06:22:44;;;;;;;9.30;2.10;;;;;;;-2.15;76.59;99564.80;103673;1315;22705;-53
2021/12/03 06:25:16;;;;;;;8.60;1.50;;;;;;;-2.17;76.81;99573.24;103566;1311;28001;-55
2021/12/03 06:27:45;;;;;;;9.20;1.80;;;;;;;-2.21;77.05;99580.94;103821;1313;26030;-53
2021/12/03 06:30:25;;;;;;;13.90;1.70;;;;;;;-2.22;76.91;99584.17;103532;1315;22711;-57
2021/12/03 06:32:53;;;;;;;9.30;2.60;;;;;;;-2.22;76.92;99583.86;103350;1310;22616;-57
2021/12/03 06:35:22;;;;;;;8.80;1.40;;;;;;;-2.22;76.78;99587.28;103374;1316;25664;-58
2021/12/03 06:37:51;;;;;;;15.60;1.70;;;;;;;-2.21;76.81;99593.22;103262;1316;24230;-58
2021/12/03 06:40:22;;;;;;;12.30;2.20;;;;;;;-2.20;76.74;99605.70;103718;1316;22597;-55
2021/12/03 06:42:51;;;;;;;15.20;2.60;;;;;;;-2.21;76.69;99610.39;103487;1315;26968;-55
2021/12/03 06:45:19;;;;;;;12.40;2.00;;;;;;;-2.20;76.51;99609.37;103305;1310;25582;-57
2021/12/03 06:47:48;;;;;;;13.60;2.30;;;;;;;-2.20;76.60;99613.28;103238;1313;24531;-57
2021/12/03 06:50:18;;;;;;;14.60;2.50;;;;;;;-2.22;76.54;99611.12;103239;1315;22817;-56
2021/12/03 06:52:52;;;;;;;15.40;2.60;;;;;;;-2.22;76.58;99615.49;103372;1315;23120;-53
2021/12/03 06:55:22;;;;;;;18.70;2.20;;;;;;;-2.24;76.46;99619.58;103142;1315;23257;-55
2021/12/03 06:57:50;;;;;;;15.90;2.40;;;;;;;-2.29;76.65;99621.27;103271;1307;24274;-55
2021/12/03 07:00:20;;;;;;;17.70;3.10;;;;;;;-2.33;76.88;99621.01;103306;1314;25728;-56
2021/12/03 07:02:48;;;;;;;14.20;3.00;;;;;;;-2.35;77.05;99627.81;103197;1317;22915;-56
2021/12/03 07:05:16;;;;;;;13.20;2.30;;;;;;;-2.35;77.00;99630.25;103284;1310;26286;-56
2021/12/03 07:07:46;;;;;;;17.00;2.20;;;;;;;-2.37;77.10;99630.96;103214;1316;23252;-55
2021/12/03 07:10:15;;;;;;;16.30;2.40;;;;;;;-2.37;77.18;99634.24;103279;1316;24234;-57
2021/12/03 07:12:43;;;;;;;14.70;2.90;;;;;;;-2.37;77.17;99638.61;103105;1315;22807;-56
2021/12/03 07:15:12;;;;;;;16.80;3.00;;;;;;;-2.40;77.28;99640.77;103130;1315;22901;-57
2021/12/03 07:17:40;;;;;;;10.20;1.60;;;;;;;-2.40;77.17;99641.23;103498;1309;24301;-59
2021/12/03 07:20:11;;;;;;;13.90;2.10;;;;;;;-2.39;77.36;99644.89;103431;1316;22601;-56
2021/12/03 07:22:40;;;;;;;13.50;1.90;;;;;;;-2.37;77.45;99643.61;103361;1316;22956;-56
2021/12/03 07:25:09;;;;;;;17.80;2.90;;;;;;;-2.36;77.38;99640.56;103548;1315;22702;-55
2021/12/03 07:27:38;;;;;;;13.10;2.20;;;;;;;-2.35;77.57;99646.02;103282;1313;26354;-53
2021/12/03 07:30:10;;;;;;;13.00;2.50;;;;;;;-2.34;77.50;99646.23;103356;1315;27003;-55
2021/12/03 07:32:39;;;;;;;17.00;2.50;;;;;;;-2.33;77.60;99650.05;103377;1315;22661;-57
2021/12/03 07:35:09;;;;;;;11.20;2.20;;;;;;;-2.32;77.41;99646.30;103150;1316;22704;-55
2021/12/03 07:37:38;;;;;;;14.50;1.80;;;;;;;-2.29;77.57;99651.96;103368;1316;25322;-56
2021/12/03 07:40:10;;;;;;;12.10;1.70;;;;;;;-2.26;77.47;99653.82;103457;1312;25650;-57
2021/12/03 07:42:39;;;;;;;13.70;2.60;;;;;;;-2.23;77.56;99646.58;103391;1310;26884;-57
2021/12/03 07:45:09;;;;;;;18.70;2.10;;;;;;;-2.20;77.46;99644.69;103413;1309;24235;-56
2021/12/03 07:47:39;;;;;;;15.80;1.90;;;;;;;-2.16;77.39;99644.95;103510;1315;25219;-57
2021/12/03 07:50:10;;;;;;;14.40;2.10;;;;;;;-2.12;77.41;99646.08;103497;1315;22897;-55
2021/12/03 07:52:39;;;;;;;16.30;2.50;;;;;;;-2.09;77.37;99651.29;103157;1316;22850;-55
2021/12/03 07:55:09;;;;;;;16.10;2.80;;;;;;;-2.08;77.28;99652.52;103378;1314;24747;-57
2021/12/03 07:57:38;;;;;;;14.70;2.40;;;;;;;-2.06;77.32;99653.97;103185;1317;25259;-57
2021/12/03 08:00:09;;;;;;;15.40;2.80;;;;;;;-2.04;77.26;99654.66;103225;1314;22789;-55
2021/12/03 08:02:38;;;;;;;18.00;2.60;;;;;;;-2.01;77.17;99651.49;103389;1315;22834;-54
2021/12/03 08:05:07;;;;;;;10.90;2.10;;;;;;;-1.98;77.25;99648.49;103371;1315;23745;-56
2021/12/03 08:07:36;;;;;;;14.20;1.90;;;;;;;-1.95;77.03;99650.09;103439;1316;22792;-55
2021/12/03 08:10:06;;;;;;;13.10;1.70;;;;;;;-1.91;77.01;99653.95;103237;1315;24416;-57
2021/12/03 08:12:34;;;;;;;14.00;2.00;;;;;;;-1.87;76.82;99652.56;103310;1315;22687;-55
2021/12/03 08:15:04;;;;;;;11.70;1.50;;;;;;;-1.83;76.79;99657.61;103373;1316;24002;-55
2021/12/03 08:17:33;;;;;;;15.90;1.90;;;;;;;-1.78;76.62;99661.67;103371;1315;23444;-55
2021/12/03 08:20:02;;;;;;;8.10;1.80;;;;;;;-1.73;76.45;99661.15;103375;1318;22702;-55
2021/12/03 08:22:31;;;;;;;10.40;1.40;;;;;;;-1.68;76.27;99662.26;103379;1315;25346;-55
2021/12/03 08:25:01;;;;;;;13.10;1.90;;;;;;;-1.63;76.06;99661.05;103239;1315;26861;-56
2021/12/03 08:27:29;;;;;;;16.00;1.60;;;;;;;-1.58;75.92;99665.50;103272;1317;25902;-54
2021/12/03 08:29:58;;;;;;;17.70;1.70;;;;;;;-1.52;75.77;99662.77;103188;1315;26934;-56
2021/12/03 08:32:26;;;;;;;11.60;1.90;;;;;;;-1.47;75.72;99662.70;103320;1313;25816;-58
2021/12/03 08:34:54;;;;;;;10.40;1.60;;;;;;;-1.41;75.48;99667.61;103211;1316;22902;-55
2021/12/03 08:37:23;;;;;;;13.50;1.50;;;;;;;-1.34;75.23;99670.96;103217;1315;22709;-56
2021/12/03 08:39:52;;;;;;;10.90;2.10;;;;;;;-1.29;75.17;99666.50;103269;1316;22601;-56
2021/12/03 08:42:21;;;;;;;18.00;2.20;;;;;;;-1.23;75.03;99667.36;103378;1316;22658;-57
2021/12/03 08:44:50;;;;;;;12.60;1.80;;;;;;;-1.16;74.74;99671.86;103195;1315;22939;-57
2021/12/03 08:47:18;;;;;;;11.90;1.50;;;;;;;-1.08;74.53;99675.43;103350;1315;22830;-53
2021/12/03 08:49:50;;;;;;;13.00;1.70;;;;;;;-1.02;74.58;99667.83;103291;1315;26792;-57
2021/12/03 08:55:09;;;;;;;12.30;1.60;;;;;;;-0.86;73.97;99681.98;102788;1319;23232;-57
2021/12/03 08:57:37;;;;;;;11.30;1.30;;;;;;;-0.79;73.86;99682.16;103121;1322;23039;-56
2021/12/03 09:00:12;;;;;;;10.70;1.40;;;;;;;-0.73;73.84;99689.29;102978;1316;24203;-58
2021/12/03 09:02:41;;;;;;;10.30;1.50;;;;;;;-0.66;73.68;99689.00;102901;1317;22890;-55
2021/12/03 09:05:12;;;;;;;10.40;1.80;;;;;;;-0.60;73.39;99691.41;102742;1316;24499;-54
2021/12/03 09:07:41;;;;;;;10.20;1.10;;;;;;;-0.52;73.37;99696.63;102951;1313;22732;-53
2021/12/03 09:10:13;;;;;;;12.70;1.60;;;;;;;-0.46;73.17;99696.27;102925;1319;23260;-57
2021/12/03 09:12:42;;;;;;;8.40;1.20;;;;;;;-0.39;72.99;99692.79;102966;1320;22898;-55
2021/12/03 09:15:13;;;;;;;12.70;1.90;;;;;;;-0.33;72.71;99688.86;102734;1316;22923;-55
2021/12/03 09:17:54;;;;;;;17.70;2.30;;;;;;;-0.27;72.62;99689.36;103042;1313;24762;-57
2021/12/03 09:20:36;;;;;;;;;;;;;;;-0.21;72.55;99692.37;102775;1317;22578;-57
2021/12/03 09:23:08;;;;;;;10.80;1.50;;;;;;;-0.15;72.16;99694.09;102711;1313;22627;-57
2021/12/03 09:25:40;;;;;;;10.50;1.50;;;;;;;-0.10;72.01;99695.77;102773;1318;23215;-55
2021/12/03 09:28:12;;;;;;;12.70;1.70;;;;;;;-0.05;71.62;99690.83;102806;1319;28485;-55
2021/12/03 09:30:43;;;;;;;15.40;2.40;;;;;;;0.01;71.36;99686.33;102863;1320;22729;-56
2021/12/03 09:33:14;;;;;;;15.90;2.40;;;;;;;0.07;71.27;99688.95;103147;1316;22650;-53
2021/12/03 09:35:45;;;;;;;8.80;1.20;;;;;;;0.12;71.08;99680.23;103299;1314;24300;-54
2021/12/03 09:38:15;;;;;;;10.60;1.70;;;;;;;0.19;70.67;99681.11;103383;1315;26866;-58
2021/12/03 09:40:43;;;;;;;16.40;3.00;;;;;;;0.26;70.20;99675.09;103187;1315;24242;-57
2021/12/03 09:43:13;;;;;;;19.70;4.50;;;;;;;0.33;70.06;99673.84;103373;1315;22896;-56
2021/12/03 09:45:50;;;;;;;27.80;6.50;;;;;;;0.40;69.98;99673.70;103363;1316;25518;-57
2021/12/03 09:48:29;;;;;;;19.50;3.50;;;;;;;0.47;69.85;99674.41;103324;1316;22593;-56
2021/12/03 09:50:58;;;;;;;16.80;4.10;;;;;;;0.54;69.10;99673.41;103194;1312;24362;-55
2021/12/03 09:53:42;;;;;;;15.70;2.70;;;;;;;0.61;69.37;99666.34;103114;1314;22883;-57
2021/12/03 09:56:12;;;;;;;13.30;2.40;;;;;;;0.67;69.60;99664.57;103125;1316;25304;-57
2021/12/03 09:59:15;;;;;;;16.80;2.20;;;;;;;0.72;69.31;99660.98;103145;1314;26553;-57
2021/12/03 10:01:45;;;;;;;13.50;2.60;;;;;;;0.81;69.34;99654.27;103131;1316;25441;-56
2021/12/03 10:04:40;;;;;;;12.60;2.10;;;;;;;0.89;69.31;99655.20;103298;1309;22577;-54
2021/12/03 10:13:15;;;;;;;7.20;1.70;;;;;;;1.09;68.58;99651.89;102734;1317;24077;-57
2021/12/03 10:15:56;;;;;;;4.90;0.70;;;;;;;1.15;68.64;99655.51;102808;1321;22788;-56
2021/12/03 10:18:44;;;;;;;8.50;0.80;;;;;;;1.25;68.32;99656.85;102696;1319;22577;-54
2021/12/03 10:21:29;;;;;;;5.60;0.70;;;;;;;1.34;67.68;99664.33;102748;1317;22607;-54
2021/12/03 10:29:39;;;;;;;5.50;0.80;;;;;;;1.55;66.45;99668.66;102703;1318;24214;-57
2021/12/03 10:38:09;;;;;;;7.60;0.60;;;;;;;1.68;66.02;99669.27;102703;1314;25708;-55
2021/12/03 10:41:12;;;;;;;5.10;0.70;;;;;;;1.72;65.95;99669.63;103179;1315;22907;-58
2021/12/03 10:49:38;;;;;;;5.40;0.70;;;;;;;1.88;65.90;99677.39;102409;1325;22574;-57
2021/12/03 10:52:24;;;;;;;5.90;0.60;;;;;;;1.96;66.01;99674.89;102300;1324;28209;-55
2021/12/03 11:12:20;;;;;;;3.50;0.60;;;;;;;2.26;64.20;99677.38;102156;1324;24352;-57
2021/12/03 11:29:07;;;;;;;4.40;0.50;;;;;;;2.45;63.37;99669.64;102566;1318;22599;-57
2021/12/03 11:41:02;;;;;;;4.30;0.40;;;;;;;2.65;61.73;99672.69;102446;1319;26614;-59
2021/12/03 13:24:13;;;;;;;10.50;2.00;;;;;;;2.77;59.70;99704.12;102129;1326;24478;-55
2021/12/03 14:01:28;;;;;;;14.20;2.80;;;;;;;2.34;61.04;99723.65;101250;1339;24249;-55
2021/12/03 14:07:20;;;;;;;12.30;2.80;;;;;;;2.25;61.35;99727.05;101193;1335;22775;-56
2021/12/03 14:38:33;;;;;;;10.20;2.70;;;;;;;1.66;62.08;99744.56;101745;1327;24563;-55
2021/12/03 14:41:12;;;;;;;17.30;3.40;;;;;;;1.61;62.14;99748.91;101662;1327;22606;-55
2021/12/03 14:43:53;;;;;;;16.60;3.20;;;;;;;1.56;62.33;99753.60;102000;1326;25338;-56
2021/12/03 14:46:43;;;;;;;13.60;3.40;;;;;;;1.52;62.44;99760.08;101795;1331;22610;-58
2021/12/03 14:52:10;;;;;;;15.70;4.30;;;;;;;1.41;62.52;99757.81;101693;1328;25729;-56
2021/12/03 14:54:52;;;;;;;19.20;4.40;;;;;;;1.35;62.63;99760.33;101889;1333;24010;-55
2021/12/03 15:00:19;;;;;;;22.40;4.40;;;;;;;1.22;62.84;99763.73;102074;1324;24848;-56
2021/12/03 15:03:09;;;;;;;20.80;5.10;;;;;;;1.17;62.88;99763.64;102585;1315;22638;-55
2021/12/03 15:05:57;;;;;;;25.60;4.70;;;;;;;1.11;62.96;99764.33;102612;1317;24138;-54
2021/12/03 15:08:32;;;;;;;20.00;4.60;;;;;;;1.05;63.10;99763.42;102765;1316;24413;-57
2021/12/03 15:11:34;;;;;;;17.70;5.20;;;;;;;0.99;63.17;99764.02;103266;1314;22777;-55
2021/12/03 15:20:07;;;;;;;25.50;6.90;;;;;;;0.81;63.43;99768.04;103210;1309;22832;-56
2021/12/03 15:22:56;;;;;;;18.50;6.10;;;;;;;0.73;63.41;99758.63;103139;1309;25240;-56
2021/12/03 15:25:29;;;;;;;21.60;6.10;;;;;;;0.68;63.58;99759.34;103252;1314;24388;-56
2021/12/03 15:28:16;;;;;;;22.80;6.90;;;;;;;0.65;63.63;99759.41;103175;1310;25504;-53
2021/12/03 15:30:57;;;;;;;21.70;6.00;;;;;;;0.63;63.74;99760.00;103165;1314;24559;-55
2021/12/03 15:33:33;;;;;;;22.20;6.10;;;;;;;0.62;63.60;99764.19;103334;1312;24314;-56
2021/12/03 15:36:06;;;;;;;23.80;6.10;;;;;;;0.58;63.76;99771.63;103209;1309;24319;-55
2021/12/03 15:51:49;;;;;;;27.50;6.80;;;;;;;0.49;63.85;99776.14;102945;1315;26446;-55
2021/12/03 15:56:14;;;;;;;25.50;7.50;;;;;;;0.21;64.17;99779.34;102238;1325;22564;-55
2021/12/03 16:04:17;;;;;;;25.10;7.10;;;;;;;0.04;64.37;99785.86;101610;1324;22619;-53
2021/12/03 16:06:56;;;;;;;25.90;8.90;;;;;;;0.01;64.47;99789.51;104138;1324;22593;-52